Time;durP1;ratioP1;P1;durP2;ratioP2;P2;SDS_P1;SDS_P2;PMS_P1;PMS_P2;Temp;Humidity;BMP_temperature;BMP_pressure;BME280_temperature;BME280_humidity;BME280_pressure;Samples;Min_cycle;Max_cycle;Signal;HPM_P1;HPM_P2
2022/05/22 00:00:49;;;;;;;;;;;;;;;24.00;58.91;99411.94;2047237;28;20314;-41
2022/05/22 00:01:49;;;;;;;;;;;;;;;24.01;58.79;99412.78;2048359;28;19933;-42
2022/05/22 00:02:50;;;;;;;;;;;;;;;24.00;58.39;99411.94;2050509;28;19917;-42
2022/05/22 00:03:51;;;;;;;;;;;;;;;24.00;58.32;99416.59;2052664;28;19909;-43
2022/05/22 00:04:51;;;;;;;;;;;;;;;23.99;58.31;99412.16;2048496;28;20336;-42
2022/05/22 00:05:51;;;;;;;;;;;;;;;24.00;58.29;99411.09;2050391;28;19918;-43
2022/05/22 00:06:52;;;;;;;;;;;;;;;23.99;58.31;99406.66;2050905;28;20624;-42
2022/05/22 00:07:52;;;;;;;;;;;;;;;23.99;58.18;99403.91;2050596;28;19925;-42
2022/05/22 00:08:53;;;;;;;;;;;;;;;23.99;58.20;99406.66;2050755;28;19928;-43
2022/05/22 00:09:53;;;;;;;;;;;;;;;23.98;58.26;99404.94;2047356;28;19972;-43
2022/05/22 00:10:53;;;;;;;;;;;;;;;23.98;58.26;99410.44;2047233;28;20318;-42
2022/05/22 00:11:54;;;;;;;;;;;;;;;23.96;58.30;99400.47;2049931;28;19914;-42
2022/05/22 00:12:54;;;;;;;;;;;;;;;23.96;58.23;99402.38;2052466;28;19917;-42
2022/05/22 00:13:55;;;;;;;;;;;;;;;23.96;58.28;99403.22;2050616;28;19917;-42
2022/05/22 00:14:55;;;;;;;;;;;;;;;23.95;58.31;99404.25;2041945;28;20228;-43
2022/05/22 00:17:14;;;;;;;;;;;;;;;23.95;58.40;99398.75;2050547;28;19918;-42
2022/05/22 00:18:15;;;;;;;;;;;;;;;23.94;58.42;99397.06;2051649;28;19933;-44
2022/05/22 00:19:17;;;;;;;;;;;;;;;23.95;58.40;99397.91;2052998;28;19917;-42
2022/05/22 00:20:17;;;;;;;;;;;;;;;23.94;58.49;99397.06;2048349;28;20279;-43
2022/05/22 00:21:17;;;;;;;;;;;;;;;23.93;58.52;99392.63;2051732;28;19964;-42
2022/05/22 00:22:18;;;;;;;;;;;;;;;23.94;58.57;99393.47;2050857;28;19914;-42
2022/05/22 00:23:18;;;;;;;;;;;;;;;23.93;58.53;99395.38;2055437;28;19913;-42
2022/05/22 00:24:20;;;;;;;;;;;;;;;23.94;58.57;99394.31;2050556;28;19960;-42
2022/05/22 00:25:20;;;;;;;;;;;;;;;23.93;58.63;99387.13;2048460;28;19925;-42
2022/05/22 00:26:20;;;;;;;;;;;;;;;23.93;58.58;99395.38;2052028;28;19918;-43
2022/05/22 00:27:22;;;;;;;;;;;;;;;23.92;58.52;99382.66;2046539;28;19981;-42
2022/05/22 00:28:22;;;;;;;;;;;;;;;23.93;58.57;99380.75;2050589;28;20423;-43
2022/05/22 00:29:22;;;;;;;;;;;;;;;23.93;58.53;99384.38;2053419;28;19918;-42
2022/05/22 00:30:23;;;;;;;;;;;;;;;23.93;58.52;99372.47;2047605;28;20176;-42
2022/05/22 00:31:23;;;;;;;;;;;;;;;23.94;58.56;99371.44;2047527;28;19921;-43
2022/05/22 00:32:23;;;;;;;;;;;;;;;23.94;58.52;99371.44;2051472;28;20329;-42
2022/05/22 00:33:26;;;;;;;;;;;;;;;23.94;58.45;99369.53;2050659;28;19914;-42
2022/05/22 00:34:26;;;;;;;;;;;;;;;23.93;58.37;99373.38;2051791;28;19965;-42
2022/05/22 00:35:26;;;;;;;;;;;;;;;23.93;58.38;99365.09;2051100;28;20345;-43
2022/05/22 00:36:27;;;;;;;;;;;;;;;23.93;58.37;99370.59;2050491;28;19941;-42
2022/05/22 00:37:27;;;;;;;;;;;;;;;23.94;58.36;99363.19;2049246;28;19925;-42
2022/05/22 00:38:27;;;;;;;;;;;;;;;23.93;58.37;99359.59;2043019;28;19918;-42
2022/05/22 00:39:28;;;;;;;;;;;;;;;23.94;58.37;99363.19;2043808;28;19918;-42
2022/05/22 00:40:28;;;;;;;;;;;;;;;23.94;58.42;99368.69;2051878;28;19918;-42
2022/05/22 00:41:29;;;;;;;;;;;;;;;23.94;58.33;99360.44;2051410;28;20000;-42
2022/05/22 00:42:30;;;;;;;;;;;;;;;23.94;58.33;99357.69;2047797;28;20404;-42
2022/05/22 00:43:33;;;;;;;;;;;;;;;23.93;58.41;99354.09;2051484;28;20453;-42
2022/05/22 00:44:33;;;;;;;;;;;;;;;23.94;58.44;99355.78;2049406;28;20383;-42
2022/05/22 00:45:33;;;;;;;;;;;;;;;23.95;58.35;99356.63;2046283;28;20523;-42
2022/05/22 00:46:34;;;;;;;;;;;;;;;23.94;58.38;99361.28;2050770;28;19964;-42
2022/05/22 00:47:34;;;;;;;;;;;;;;;23.94;58.36;99365.94;2048939;28;19925;-42
2022/05/22 00:48:35;;;;;;;;;;;;;;;23.94;58.27;99355.78;2051365;28;19945;-42
2022/05/22 00:49:38;;;;;;;;;;;;;;;23.93;58.28;99354.09;2049346;28;19941;-43
2022/05/22 00:50:39;;;;;;;;;;;;;;;23.93;58.36;99354.09;2042039;28;20342;-42
2022/05/22 00:51:46;;;;;;;;;;;;;;;23.94;58.29;99353.03;2043796;28;20065;-43
2022/05/22 00:52:50;;;;;;;;;;;;;;;23.93;58.36;99345.84;2058074;28;19980;-42
2022/05/22 00:53:55;;;;;;;;;;;;;;;23.93;58.41;99348.59;2058954;28;19918;-43
2022/05/22 00:55:16;;;;;;;;;;;;;;;23.92;58.42;99352.38;2052214;28;19924;-43
2022/05/22 00:56:18;;;;;;;;;;;;;;;23.91;58.38;99361.69;2050255;28;19936;-42
2022/05/22 00:57:21;;;;;;;;;;;;;;;23.92;58.45;99359.78;2053767;28;19918;-42
2022/05/22 00:58:24;;;;;;;;;;;;;;;23.93;58.52;99358.72;2052850;28;19917;-42
2022/05/22 00:59:29;;;;;;;;;;;;;;;23.92;58.51;99357.88;2052203;28;20297;-42
2022/05/22 01:00:32;;;;;;;;;;;;;;;23.92;58.43;99351.53;2052859;28;19925;-43
2022/05/22 01:01:32;;;;;;;;;;;;;;;23.92;58.46;99362.53;2060589;28;20370;-42
2022/05/22 01:03:26;;;;;;;;;;;;;;;23.92;58.57;99357.03;2055449;28;19918;-42
2022/05/22 01:03:55;;;;;;;;;;;;;;;23.91;58.54;99361.69;2052342;28;19909;-43
2022/05/22 01:04:55;;;;;;;;;;;;;;;23.92;58.49;99357.88;2054697;28;20075;-43
2022/05/22 01:05:57;;;;;;;;;;;;;;;23.92;58.44;99357.88;2053010;28;19981;-43
2022/05/22 01:06:57;;;;;;;;;;;;;;;23.92;58.42;99357.88;2052971;28;19917;-44
2022/05/22 01:07:58;;;;;;;;;;;;;;;23.92;58.36;99355.13;2053138;28;20547;-42
2022/05/22 01:08:59;;;;;;;;;;;;;;;23.93;58.44;99359.59;2049676;28;19963;-42
2022/05/22 01:09:59;;;;;;;;;;;;;;;23.92;58.29;99357.88;2047013;28;20273;-42
2022/05/22 01:11:18;;;;;;;;;;;;;;;23.92;58.28;99357.88;2042943;28;19918;-44
2022/05/22 01:12:21;;;;;;;;;;;;;;;23.93;58.21;99355.97;2053206;28;20009;-43
2022/05/22 01:13:29;;;;;;;;;;;;;;;23.93;58.23;99347.72;2051832;28;19914;-42
2022/05/22 01:14:31;;;;;;;;;;;;;;;23.93;58.37;99355.97;2051932;28;20543;-42
2022/05/22 01:15:32;;;;;;;;;;;;;;;23.93;58.34;99347.72;2048398;28;20022;-43
2022/05/22 01:16:33;;;;;;;;;;;;;;;23.93;58.29;99354.09;2049430;28;20238;-43
2022/05/22 01:17:44;;;;;;;;;;;;;;;23.93;58.34;99348.59;2053843;28;19914;-42
2022/05/22 01:18:47;;;;;;;;;;;;;;;23.93;58.22;99351.34;2050344;28;20018;-43
2022/05/22 01:19:58;;;;;;;;;;;;;;;23.92;58.21;99341.38;2050773;28;19964;-42
2022/05/22 01:20:58;;;;;;;;;;;;;;;23.93;58.29;99343.09;2049115;28;19997;-42
2022/05/22 01:22:00;;;;;;;;;;;;;;;23.93;58.20;99343.09;2055032;28;19918;-42
2022/05/22 01:23:01;;;;;;;;;;;;;;;23.93;58.29;99348.59;2049147;28;20230;-43
2022/05/22 01:24:01;;;;;;;;;;;;;;;23.92;58.34;99341.38;2051061;28;19961;-43
2022/05/22 01:25:02;;;;;;;;;;;;;;;23.93;58.23;99345.84;2052502;28;19949;-42
2022/05/22 01:26:02;;;;;;;;;;;;;;;23.92;58.23;99341.38;2052749;28;19918;-42
2022/05/22 01:27:05;;;;;;;;;;;;;;;23.92;58.23;99341.38;2055487;28;19925;-44
2022/05/22 01:28:06;;;;;;;;;;;;;;;23.93;58.37;99336.69;2053272;28;20340;-42
2022/05/22 01:29:07;;;;;;;;;;;;;;;23.92;58.29;99346.03;2051230;28;19961;-42
2022/05/22 01:30:33;;;;;;;;;;;;;;;23.91;58.30;99334.16;2053373;28;19942;-43
2022/05/22 01:31:33;;;;;;;;;;;;;;;23.91;58.29;99333.28;2051783;28;19918;-42
2022/05/22 01:32:35;;;;;;;;;;;;;;;23.91;58.31;99334.16;2050022;28;20336;-42
2022/05/22 01:33:36;;;;;;;;;;;;;;;23.91;58.40;99328.66;2053775;28;19918;-42
2022/05/22 01:34:37;;;;;;;;;;;;;;;23.91;58.39;99334.16;2050903;28;20093;-42
2022/05/22 01:35:37;;;;;;;;;;;;;;;23.91;58.43;99328.66;2050408;28;19961;-42
2022/05/22 01:36:38;;;;;;;;;;;;;;;23.91;58.42;99331.41;2052719;28;19914;-42
2022/05/22 01:37:38;;;;;;;;;;;;;;;23.90;58.59;99332.44;2053614;28;19968;-42
2022/05/22 01:38:38;;;;;;;;;;;;;;;23.90;58.50;99326.94;2054244;28;19957;-42
2022/05/22 01:39:39;;;;;;;;;;;;;;;23.90;58.44;99329.69;2051529;28;20424;-42
2022/05/22 01:40:39;;;;;;;;;;;;;;;23.91;58.45;99327.78;2049254;28;19925;-42
2022/05/22 01:41:39;;;;;;;;;;;;;;;23.90;58.48;99324.19;2054444;28;19957;-42
2022/05/22 01:42:40;;;;;;;;;;;;;;;23.91;58.38;99325.03;2050930;28;20240;-42
2022/05/22 01:43:40;;;;;;;;;;;;;;;23.91;58.35;99323.16;2044515;28;19953;-42
2022/05/22 01:44:40;;;;;;;;;;;;;;;23.91;58.30;99328.66;2044101;28;20279;-43
2022/05/22 01:45:42;;;;;;;;;;;;;;;23.91;58.36;99331.41;2051661;28;19918;-42
2022/05/22 01:46:42;;;;;;;;;;;;;;;23.92;58.29;99326.75;2052695;28;20241;-42
2022/05/22 01:47:42;;;;;;;;;;;;;;;23.92;58.28;99324.84;2051741;28;19921;-42
2022/05/22 01:48:43;;;;;;;;;;;;;;;23.91;58.26;99328.66;2052734;28;19909;-42
2022/05/22 01:49:43;;;;;;;;;;;;;;;23.92;58.28;99341.38;2052182;28;19979;-44
2022/05/22 01:50:45;;;;;;;;;;;;;;;23.91;58.24;99323.16;2050199;28;19918;-42
2022/05/22 01:51:46;;;;;;;;;;;;;;;23.92;58.26;99327.59;2052564;28;19972;-43
2022/05/22 01:52:46;;;;;;;;;;;;;;;23.92;58.14;99330.34;2043162;28;20436;-42
2022/05/22 01:53:47;;;;;;;;;;;;;;;23.92;58.27;99327.59;2043164;28;20716;-43
2022/05/22 01:54:47;;;;;;;;;;;;;;;23.93;58.26;99333.94;2052201;28;19961;-42
2022/05/22 01:55:48;;;;;;;;;;;;;;;23.93;58.35;99329.31;2051888;28;19922;-42
2022/05/22 01:56:48;;;;;;;;;;;;;;;23.92;58.31;99330.34;2052387;28;19910;-42
2022/05/22 01:57:49;;;;;;;;;;;;;;;23.92;58.22;99329.50;2050421;28;20459;-42
2022/05/22 01:58:49;;;;;;;;;;;;;;;23.92;58.22;99319.34;2051846;28;19941;-42
2022/05/22 01:59:50;;;;;;;;;;;;;;;23.92;58.17;99330.34;2053518;28;19948;-42
2022/05/22 02:00:50;;;;;;;;;;;;;;;23.91;58.23;99311.28;2050030;28;19949;-41
2022/05/22 02:01:50;;;;;;;;;;;;;;;23.91;58.27;99317.66;2050579;28;20199;-42
2022/05/22 02:02:52;;;;;;;;;;;;;;;23.91;58.30;99316.78;2049027;28;20420;-44
2022/05/22 02:03:54;;;;;;;;;;;;;;;23.91;58.44;99312.16;2055919;28;20859;-42
2022/05/22 02:04:54;;;;;;;;;;;;;;;23.90;58.38;99310.44;2048843;28;19921;-41
2022/05/22 02:05:55;;;;;;;;;;;;;;;23.90;58.35;99310.44;2049299;28;19918;-42
2022/05/22 02:08:22;;;;;;;;;;;;;;;23.91;58.32;99312.16;2052911;28;20348;-42
2022/05/22 02:09:22;;;;;;;;;;;;;;;23.90;58.44;99307.69;2052401;28;19924;-43
2022/05/22 02:10:24;;;;;;;;;;;;;;;23.90;58.39;99315.94;2051587;28;19929;-42
2022/05/22 02:11:25;;;;;;;;;;;;;;;23.90;58.24;99306.84;2053380;28;20203;-42
2022/05/22 02:12:25;;;;;;;;;;;;;;;23.90;58.41;99304.09;2050929;28;19998;-42
2022/05/22 02:13:30;;;;;;;;;;;;;;;23.89;58.41;99319.75;2051228;28;19956;-43
2022/05/22 02:14:30;;;;;;;;;;;;;;;23.90;58.35;99315.94;2053438;28;20502;-42
2022/05/22 02:15:31;;;;;;;;;;;;;;;23.90;58.30;99309.59;2048340;28;20529;-42
2022/05/22 02:16:31;;;;;;;;;;;;;;;23.90;58.37;99312.34;2051744;28;19917;-42
2022/05/22 02:17:32;;;;;;;;;;;;;;;23.89;58.41;99319.75;2054250;28;19918;-43
2022/05/22 02:18:32;;;;;;;;;;;;;;;23.91;58.32;99311.28;2052979;28;20017;-42
2022/05/22 02:19:32;;;;;;;;;;;;;;;23.89;58.33;99311.50;2052342;28;20004;-42
2022/05/22 02:20:32;;;;;;;;;;;;;;;23.90;58.30;99313.19;2050317;28;19920;-43
2022/05/22 02:21:33;;;;;;;;;;;;;;;23.90;58.30;99302.19;2049570;28;20239;-42
2022/05/22 02:22:38;;;;;;;;;;;;;;;23.91;58.37;99305.78;2051613;28;19917;-43
2022/05/22 02:23:38;;;;;;;;;;;;;;;23.90;58.28;99301.31;2044096;28;20321;-42
2022/05/22 02:24:38;;;;;;;;;;;;;;;23.90;58.27;99304.94;2042963;28;19950;-43
2022/05/22 02:25:42;;;;;;;;;;;;;;;23.91;58.17;99306.66;2050074;28;19989;-42
2022/05/22 02:26:42;;;;;;;;;;;;;;;23.90;58.38;99310.44;2047813;28;19922;-44
2022/05/22 02:27:43;;;;;;;;;;;;;;;23.90;58.25;99302.19;2049710;28;19920;-42
2022/05/22 02:28:43;;;;;;;;;;;;;;;23.91;58.26;99301.13;2048705;28;19928;-42
2022/05/22 02:29:44;;;;;;;;;;;;;;;23.91;58.34;99295.63;2047899;28;20333;-42
2022/05/22 02:30:49;;;;;;;;;;;;;;;23.91;58.31;99301.13;2046691;28;20656;-43
2022/05/22 02:31:49;;;;;;;;;;;;;;;23.91;58.32;99309.41;2046201;28;19956;-42
2022/05/22 02:32:49;;;;;;;;;;;;;;;23.91;58.27;99301.13;2046946;28;19918;-42
2022/05/22 02:33:50;;;;;;;;;;;;;;;23.91;58.23;99303.03;2044367;28;19918;-42
2022/05/22 02:34:50;;;;;;;;;;;;;;;23.91;58.26;99306.66;2054199;28;19917;-42
2022/05/22 02:35:51;;;;;;;;;;;;;;;23.91;58.19;99305.78;2051716;28;19965;-42
2022/05/22 02:36:51;;;;;;;;;;;;;;;23.90;58.23;99304.94;2052310;28;20502;-43
2022/05/22 02:37:53;;;;;;;;;;;;;;;23.90;58.24;99307.69;2052341;28;19917;-43
2022/05/22 02:38:53;;;;;;;;;;;;;;;23.90;58.29;99304.94;2050654;28;19918;-43
2022/05/22 02:39:56;;;;;;;;;;;;;;;23.90;58.36;99304.94;2053043;28;20015;-42
2022/05/22 02:40:56;;;;;;;;;;;;;;;23.89;58.36;99303.25;2050681;28;19924;-43
2022/05/22 02:42:04;;;;;;;;;;;;;;;23.89;58.40;99299.66;2053927;28;20305;-42
2022/05/22 02:43:05;;;;;;;;;;;;;;;23.89;58.38;99297.72;2052688;28;20604;-43
2022/05/22 02:44:05;;;;;;;;;;;;;;;23.89;58.46;99300.50;2051113;28;19918;-43
2022/05/22 02:45:06;;;;;;;;;;;;;;;23.89;58.45;99291.38;2053655;28;20012;-42
2022/05/22 02:46:10;;;;;;;;;;;;;;;23.89;58.45;99302.41;2052169;28;19910;-43
2022/05/22 02:47:10;;;;;;;;;;;;;;;23.87;58.49;99299.00;2050088;28;19926;-43
2022/05/22 02:48:11;;;;;;;;;;;;;;;23.89;58.38;99288.63;2051394;28;19917;-43
2022/05/22 02:49:11;;;;;;;;;;;;;;;23.88;58.47;99296.00;2052735;28;19918;-42
2022/05/22 02:50:13;;;;;;;;;;;;;;;23.88;58.45;99290.50;2052730;28;19914;-42
2022/05/22 02:51:14;;;;;;;;;;;;;;;23.87;58.53;99286.06;2048324;28;20478;-42
2022/05/22 02:52:15;;;;;;;;;;;;;;;23.88;58.53;99296.00;2051639;28;20349;-42
2022/05/22 02:53:15;;;;;;;;;;;;;;;23.89;58.50;99297.72;2051584;28;19918;-42
2022/05/22 02:54:16;;;;;;;;;;;;;;;23.87;58.48;99288.81;2052724;28;20316;-42
2022/05/22 02:55:17;;;;;;;;;;;;;;;23.88;58.54;99285.00;2051429;28;19917;-43
2022/05/22 02:56:22;;;;;;;;;;;;;;;23.88;58.53;99290.50;2051380;28;19918;-43
2022/05/22 02:57:22;;;;;;;;;;;;;;;23.89;58.50;99285.88;2050275;28;20176;-43
2022/05/22 02:58:22;;;;;;;;;;;;;;;23.88;58.47;99285.00;2048192;28;19993;-42
2022/05/22 02:59:23;;;;;;;;;;;;;;;23.88;58.41;99282.25;2047613;28;19918;-42
2022/05/22 03:00:24;;;;;;;;;;;;;;;23.88;58.49;99279.50;2049819;28;19924;-42
2022/05/22 03:01:25;;;;;;;;;;;;;;;23.89;58.45;99278.47;2047680;28;20664;-42
2022/05/22 03:02:25;;;;;;;;;;;;;;;23.89;58.42;99281.22;2051387;28;20385;-42
2022/05/22 03:03:25;;;;;;;;;;;;;;;23.88;58.39;99279.50;2051683;28;19918;-43
2022/05/22 03:04:26;;;;;;;;;;;;;;;23.89;58.45;99283.13;2052272;28;19917;-43
2022/05/22 03:06:37;;;;;;;;;;;;;;;23.89;58.39;99280.38;2051526;28;19921;-43
2022/05/22 03:06:48;;;;;;;;;;;;;;;23.89;58.44;99286.72;2051089;28;20440;-43
2022/05/22 03:07:48;;;;;;;;;;;;;;;23.89;58.39;99280.38;2050294;28;19914;-43
2022/05/22 03:08:49;;;;;;;;;;;;;;;23.89;58.44;99286.72;2051241;28;20620;-43
2022/05/22 03:09:49;;;;;;;;;;;;;;;23.89;58.46;99281.22;2049911;28;19918;-42
2022/05/22 03:10:49;;;;;;;;;;;;;;;23.90;58.33;99276.56;2049813;28;19918;-42
2022/05/22 03:11:50;;;;;;;;;;;;;;;23.89;58.44;99275.72;2050121;28;19966;-42
2022/05/22 03:12:50;;;;;;;;;;;;;;;23.89;58.31;99272.13;2051708;28;20292;-42
2022/05/22 03:13:51;;;;;;;;;;;;;;;23.90;58.44;99276.56;2049216;28;19918;-42
2022/05/22 03:14:53;;;;;;;;;;;;;;;23.89;58.45;99272.97;2052059;28;19929;-42
2022/05/22 03:15:54;;;;;;;;;;;;;;;23.88;58.29;99274.00;2051723;28;19933;-42
2022/05/22 03:16:55;;;;;;;;;;;;;;;23.89;58.47;99274.88;2048450;28;19918;-42
2022/05/22 03:17:55;;;;;;;;;;;;;;;23.89;58.53;99272.97;2051504;28;19920;-42
2022/05/22 03:18:55;;;;;;;;;;;;;;;23.87;58.53;99265.97;2049192;28;19909;-42
2022/05/22 03:19:56;;;;;;;;;;;;;;;23.87;58.50;99261.31;2051092;28;19944;-42
2022/05/22 03:20:58;;;;;;;;;;;;;;;23.87;58.57;99266.81;2052796;28;20363;-43
2022/05/22 03:21:58;;;;;;;;;;;;;;;23.87;58.57;99260.47;2051272;28;19917;-42
2022/05/22 03:22:59;;;;;;;;;;;;;;;23.87;58.63;99269.56;2051829;28;19917;-43
2022/05/22 03:23:59;;;;;;;;;;;;;;;23.87;58.59;99268.72;2053548;28;19924;-42
2022/05/22 03:24:59;;;;;;;;;;;;;;;23.86;58.56;99265.13;2050942;28;19945;-43
2022/05/22 03:26:00;;;;;;;;;;;;;;;23.86;58.60;99267.88;2052817;28;20090;-42
2022/05/22 03:27:00;;;;;;;;;;;;;;;23.86;58.58;99267.88;2051334;28;20101;-42
2022/05/22 03:28:01;;;;;;;;;;;;;;;23.86;58.56;99269.75;2049237;28;20016;-43
2022/05/22 03:29:01;;;;;;;;;;;;;;;23.86;58.59;99265.13;2047868;28;19918;-43
2022/05/22 03:30:02;;;;;;;;;;;;;;;23.87;58.58;99268.72;2053081;28;19918;-43
2022/05/22 03:31:02;;;;;;;;;;;;;;;23.86;58.59;99270.63;2052345;28;19972;-42
2022/05/22 03:32:03;;;;;;;;;;;;;;;23.86;58.51;99275.25;2050258;28;20009;-42
2022/05/22 03:33:03;;;;;;;;;;;;;;;23.88;58.60;99274.00;2053020;28;19925;-42
2022/05/22 03:34:04;;;;;;;;;;;;;;;23.87;58.46;99272.31;2050873;28;19961;-41
2022/05/22 03:35:04;;;;;;;;;;;;;;;23.88;58.52;99265.75;2050960;28;19918;-42
2022/05/22 03:36:05;;;;;;;;;;;;;;;23.87;58.49;99269.56;2052407;28;20188;-41
2022/05/22 03:37:05;;;;;;;;;;;;;;;23.87;58.41;99271.47;2051610;28;19941;-42
2022/05/22 03:38:06;;;;;;;;;;;;;;;23.87;58.51;99272.31;2052799;28;19916;-42
2022/05/22 03:39:06;;;;;;;;;;;;;;;23.87;58.48;99271.47;2050825;28;19917;-42
2022/05/22 03:40:07;;;;;;;;;;;;;;;23.88;58.49;99268.50;2050566;28;19918;-41
2022/05/22 03:41:08;;;;;;;;;;;;;;;23.88;58.38;99268.50;2052717;28;19918;-41
2022/05/22 03:42:10;;;;;;;;;;;;;;;23.89;58.33;99263.88;2050654;28;19946;-42
2022/05/22 03:43:10;;;;;;;;;;;;;;;23.89;58.29;99272.13;2052311;28;19920;-41
2022/05/22 03:44:10;;;;;;;;;;;;;;;23.88;58.41;99279.50;2053492;28;20478;-42
2022/05/22 03:45:11;;;;;;;;;;;;;;;23.88;58.32;99271.25;2049117;28;19916;-42
2022/05/22 03:46:11;;;;;;;;;;;;;;;23.89;58.41;99274.88;2049590;28;19916;-41
2022/05/22 03:47:12;;;;;;;;;;;;;;;23.89;58.36;99280.38;2051720;28;20309;-41
2022/05/22 03:48:12;;;;;;;;;;;;;;;23.89;58.32;99266.63;2051236;28;19906;-41
2022/05/22 03:49:13;;;;;;;;;;;;;;;23.89;58.27;99281.22;2051465;28;19918;-42
2022/05/22 03:50:14;;;;;;;;;;;;;;;23.89;58.34;99278.47;2050193;28;19949;-42
2022/05/22 03:51:14;;;;;;;;;;;;;;;23.89;58.30;99269.38;2053827;28;19917;-41
2022/05/22 03:52:14;;;;;;;;;;;;;;;23.88;58.34;99285.00;2052150;28;20317;-41
2022/05/22 03:53:15;;;;;;;;;;;;;;;23.88;58.34;99279.50;2052155;28;19922;-42
2022/05/22 03:54:15;;;;;;;;;;;;;;;23.88;58.36;99279.50;2051353;28;20009;-41
2022/05/22 03:55:15;;;;;;;;;;;;;;;23.87;58.34;99282.47;2051308;28;20498;-42
2022/05/22 03:56:17;;;;;;;;;;;;;;;23.88;58.24;99285.00;2052392;28;20691;-42
2022/05/22 03:57:17;;;;;;;;;;;;;;;23.87;58.33;99288.81;2052222;28;20374;-42
2022/05/22 03:58:18;;;;;;;;;;;;;;;23.87;58.35;99297.09;2051594;28;19905;-43
2022/05/22 03:59:18;;;;;;;;;;;;;;;23.87;58.32;99287.97;2052633;28;19914;-42
2022/05/22 04:00:19;;;;;;;;;;;;;;;23.87;58.38;99299.81;2048944;28;19922;-42
2022/05/22 04:01:19;;;;;;;;;;;;;;;23.87;58.28;99293.47;2051306;28;19914;-42
2022/05/22 04:02:20;;;;;;;;;;;;;;;23.88;58.36;99307.03;2052156;28;19914;-42
2022/05/22 04:03:20;;;;;;;;;;;;;;;23.86;58.42;99294.50;2051738;28;19914;-41
2022/05/22 04:04:20;;;;;;;;;;;;;;;23.87;58.38;99299.00;2052578;28;20650;-42
2022/05/22 04:05:21;;;;;;;;;;;;;;;23.86;58.50;99294.50;2049457;28;19922;-41
2022/05/22 04:06:21;;;;;;;;;;;;;;;23.85;58.46;99296.41;2052854;28;19925;-42
2022/05/22 04:07:21;;;;;;;;;;;;;;;23.86;58.50;99297.25;2050254;28;19913;-42
2022/05/22 04:08:21;;;;;;;;;;;;;;;23.85;58.51;99301.09;2050027;28;19914;-42
2022/05/22 04:09:22;;;;;;;;;;;;;;;23.84;58.35;99297.50;2051734;28;19914;-42
2022/05/22 04:10:22;;;;;;;;;;;;;;;23.85;58.37;99299.19;2050098;28;19972;-41
2022/05/22 04:11:23;;;;;;;;;;;;;;;23.86;58.49;99297.25;2049933;28;20232;-42
2022/05/22 04:12:23;;;;;;;;;;;;;;;23.85;58.40;99301.94;2053535;28;19921;-41
2022/05/22 04:13:24;;;;;;;;;;;;;;;23.85;58.49;99307.44;2049999;28;19913;-42
2022/05/22 04:14:25;;;;;;;;;;;;;;;23.86;58.47;99306.41;2052992;28;20037;-41
2022/05/22 04:15:25;;;;;;;;;;;;;;;23.86;58.35;99309.16;2048078;28;19977;-42
2022/05/22 04:16:25;;;;;;;;;;;;;;;23.86;58.36;99302.78;2050312;28;20212;-41
2022/05/22 04:17:26;;;;;;;;;;;;;;;23.86;58.33;99303.66;2051171;28;20787;-42
2022/05/22 04:18:26;;;;;;;;;;;;;;;23.86;58.27;99303.66;2049510;28;19961;-41
2022/05/22 04:19:26;;;;;;;;;;;;;;;23.86;58.14;99309.16;2052674;28;19968;-41
2022/05/22 04:20:27;;;;;;;;;;;;;;;23.87;58.29;99310.00;2050956;28;19918;-41
2022/05/22 04:21:27;;;;;;;;;;;;;;;23.87;58.19;99307.25;2059174;28;20186;-42
2022/05/22 04:22:27;;;;;;;;;;;;;;;23.87;58.24;99308.09;2059343;28;20735;-42
2022/05/22 04:26:07;;;;;;;;;;;;;;;23.87;58.23;99310.00;2047583;28;19909;-42
2022/05/22 04:27:07;;;;;;;;;;;;;;;23.86;58.35;99314.66;2041278;28;19957;-48
2022/05/22 04:28:09;;;;;;;;;;;;;;;23.87;58.23;99310.00;2039940;28;20601;-42
2022/05/22 04:29:09;;;;;;;;;;;;;;;23.87;58.23;99316.34;2051094;28;19934;-41
2022/05/22 04:30:17;;;;;;;;;;;;;;;23.87;58.20;99313.59;2048959;28;20298;-41
2022/05/22 04:31:17;;;;;;;;;;;;;;;23.87;58.28;99319.09;2050932;28;19922;-42
2022/05/22 04:32:18;;;;;;;;;;;;;;;23.87;58.27;99312.75;2042637;28;19906;-42
2022/05/22 04:33:18;;;;;;;;;;;;;;;23.87;58.23;99315.50;2040215;28;19914;-41
2022/05/22 04:34:19;;;;;;;;;;;;;;;23.87;58.23;99312.75;2053227;28;19918;-42
2022/05/22 04:35:20;;;;;;;;;;;;;;;23.86;58.27;99320.16;2047111;28;19921;-41
2022/05/22 04:36:21;;;;;;;;;;;;;;;23.86;58.23;99311.03;2048565;28;19921;-42
2022/05/22 04:37:21;;;;;;;;;;;;;;;23.85;58.27;99317.59;2050949;28;20381;-42
2022/05/22 04:38:22;;;;;;;;;;;;;;;23.84;58.18;99311.25;2049437;28;20002;-42
2022/05/22 04:39:22;;;;;;;;;;;;;;;23.85;58.35;99318.44;2049934;28;20825;-43
2022/05/22 04:40:22;;;;;;;;;;;;;;;23.85;58.32;99314.84;2048357;28;20056;-42
2022/05/22 04:41:23;;;;;;;;;;;;;;;23.85;58.38;99315.69;2049654;28;19971;-42
2022/05/22 04:42:23;;;;;;;;;;;;;;;23.84;58.35;99322.25;2053020;28;19922;-42
2022/05/22 04:43:24;;;;;;;;;;;;;;;23.85;58.44;99320.34;2046881;28;20758;-43
2022/05/22 04:44:25;;;;;;;;;;;;;;;23.84;58.35;99310.41;2049908;28;19977;-41
2022/05/22 04:45:25;;;;;;;;;;;;;;;23.83;58.51;99306.78;2050556;28;19918;-43
2022/05/22 04:46:26;;;;;;;;;;;;;;;23.83;58.49;99312.28;2046806;28;20316;-42
2022/05/22 04:47:26;;;;;;;;;;;;;;;23.84;58.42;99314.00;2051027;28;19945;-41
2022/05/22 04:48:27;;;;;;;;;;;;;;;23.83;58.46;99314.19;2051230;28;19997;-42
2022/05/22 04:49:27;;;;;;;;;;;;;;;23.84;58.43;99316.75;2047214;28;20289;-42
2022/05/22 04:50:28;;;;;;;;;;;;;;;23.84;58.45;99322.25;2050849;28;20018;-42
2022/05/22 04:51:28;;;;;;;;;;;;;;;23.84;58.38;99325.00;2051106;28;20260;-42
2022/05/22 04:52:28;;;;;;;;;;;;;;;23.84;58.41;99321.41;2052813;28;19922;-41
2022/05/22 04:53:29;;;;;;;;;;;;;;;23.84;58.21;99325.00;2049814;28;20004;-42
2022/05/22 04:54:29;;;;;;;;;;;;;;;23.85;58.40;99312.09;2045379;28;20377;-42
2022/05/22 04:55:30;;;;;;;;;;;;;;;23.84;58.40;99319.50;2050853;28;19926;-42
2022/05/22 04:56:30;;;;;;;;;;;;;;;23.83;58.34;99315.03;2050952;28;19936;-42
2022/05/22 04:57:31;;;;;;;;;;;;;;;23.84;58.27;99316.75;2050957;28;19916;-42
2022/05/22 04:58:31;;;;;;;;;;;;;;;23.84;58.28;99316.75;2041395;28;19910;-43
2022/05/22 04:59:32;;;;;;;;;;;;;;;23.85;58.26;99309.34;2044146;28;19918;-43
2022/05/22 05:00:32;;;;;;;;;;;;;;;23.84;58.29;99311.25;2050376;28;19984;-42
2022/05/22 05:01:32;;;;;;;;;;;;;;;23.84;58.27;99316.75;2052407;28;19920;-43
2022/05/22 05:02:32;;;;;;;;;;;;;;;23.85;58.33;99315.69;2049807;28;19913;-42
2022/05/22 05:03:33;;;;;;;;;;;;;;;23.85;58.24;99310.19;2051160;28;19941;-41
2022/05/22 05:04:33;;;;;;;;;;;;;;;23.85;58.28;99301.09;2052501;28;20774;-41
2022/05/22 05:05:34;;;;;;;;;;;;;;;23.84;58.26;99300.25;2052301;28;19972;-42
2022/05/22 05:06:34;;;;;;;;;;;;;;;23.85;58.28;99298.34;2051824;28;19925;-42
2022/05/22 05:07:39;;;;;;;;;;;;;;;23.85;58.22;99301.09;2051779;28;19917;-42
2022/05/22 05:08:39;;;;;;;;;;;;;;;23.85;58.37;99301.09;2050088;28;19929;-42
2022/05/22 05:09:39;;;;;;;;;;;;;;;23.84;58.22;99300.25;2052334;28;20255;-44
2022/05/22 05:10:39;;;;;;;;;;;;;;;23.84;58.27;99300.25;2043904;28;19929;-42
2022/05/22 05:11:41;;;;;;;;;;;;;;;23.84;58.31;99303.00;2053698;28;20275;-43
2022/05/22 05:12:42;;;;;;;;;;;;;;;23.85;58.32;99306.59;2045376;28;19933;-42
2022/05/22 05:13:42;;;;;;;;;;;;;;;23.84;58.23;99305.75;2048324;28;20380;-42
2022/05/22 05:14:43;;;;;;;;;;;;;;;23.84;58.21;99315.91;2049506;28;20265;-42
2022/05/22 05:15:43;;;;;;;;;;;;;;;23.84;58.29;99319.50;2046849;28;19926;-42
2022/05/22 05:16:43;;;;;;;;;;;;;;;23.84;58.40;99322.25;2051924;28;19918;-42
2022/05/22 05:17:45;;;;;;;;;;;;;;;23.84;58.29;99318.66;2053964;28;19917;-42
2022/05/22 05:18:46;;;;;;;;;;;;;;;23.82;58.43;99318.84;2052154;28;19922;-42
2022/05/22 05:19:46;;;;;;;;;;;;;;;23.83;58.49;99323.28;2049904;28;19993;-43
2022/05/22 05:20:47;;;;;;;;;;;;;;;23.82;58.37;99321.59;2051970;28;19918;-42
2022/05/22 05:21:47;;;;;;;;;;;;;;;23.83;58.45;99315.03;2051119;28;20276;-43
2022/05/22 05:22:47;;;;;;;;;;;;;;;23.83;58.42;99320.53;2051058;28;20261;-41
2022/05/22 05:23:48;;;;;;;;;;;;;;;23.82;58.47;99313.34;2051446;28;19914;-41
2022/05/22 05:24:48;;;;;;;;;;;;;;;23.83;58.52;99317.78;2051172;28;20741;-42